Time;durP1;ratioP1;P1;durP2;ratioP2;P2;SDS_P1;SDS_P2;PMS_P1;PMS_P2;Temp;Humidity;BMP_temperature;BMP_pressure;BME280_temperature;BME280_humidity;BME280_pressure;Samples;Min_cycle;Max_cycle;Signal;HPM_P1;HPM_P2
2020/12/10 00:00:07;;;;;;;31.92;23.85;;;;;;;-0.05;100.00;95172.78;1029498;29;20019;-75
2020/12/10 00:00:38;;;;;;;31.55;24.40;;;;;;;-0.01;100.00;95170.94;1037103;28;20015;-74
2020/12/10 00:01:09;;;;;;;30.58;23.77;;;;;;;-0.05;100.00;95169.38;1033174;28;20796;-73
2020/12/10 00:01:40;;;;;;;30.88;23.73;;;;;;;-0.05;100.00;95170.22;1032807;28;20513;-74
2020/12/10 00:02:11;;;;;;;28.73;22.13;;;;;;;-0.06;100.00;95173.69;1040598;28;20263;-75
2020/12/10 00:02:42;;;;;;;32.22;24.55;;;;;;;-0.09;100.00;95167.84;1036638;28;20057;-74
2020/12/10 00:03:13;;;;;;;32.22;24.63;;;;;;;-0.09;100.00;95171.25;1032408;28;20384;-75
2020/12/10 00:03:46;;;;;;;30.50;23.95;;;;;;;-0.08;100.00;95170.34;1036452;28;20348;-74
2020/12/10 00:04:35;;;;;;;33.03;23.45;;;;;;;-0.09;100.00;95170.41;1032586;28;20026;-74
2020/12/10 00:05:08;;;;;;;28.02;21.25;;;;;;;-0.10;100.00;95161.84;1028490;28;20345;-74
2020/12/10 00:05:38;;;;;;;28.88;23.67;;;;;;;-0.06;100.00;95162.56;1032659;28;20265;-75
2020/12/10 00:06:09;;;;;;;32.75;23.23;;;;;;;-0.12;100.00;95158.50;1032505;28;20340;-74
2020/12/10 00:06:40;;;;;;;31.08;23.08;;;;;;;-0.04;100.00;95168.47;1032406;28;20032;-77
2020/12/10 00:07:11;;;;;;;33.22;24.35;;;;;;;-0.06;100.00;95165.13;1032507;28;20022;-74
2020/12/10 00:07:41;;;;;;;30.77;22.92;;;;;;;-0.09;100.00;95163.53;1028444;28;20780;-75
2020/12/10 00:08:12;;;;;;;28.75;21.75;;;;;;;-0.08;100.00;95167.75;1036483;28;20386;-74
2020/12/10 00:08:43;;;;;;;29.65;22.77;;;;;;;-0.10;100.00;95161.84;1028357;28;20019;-74
2020/12/10 00:09:14;;;;;;;29.95;22.90;;;;;;;-0.06;100.00;95173.69;1032341;28;20021;-78
2020/12/10 00:09:44;;;;;;;31.33;23.83;;;;;;;-0.08;100.00;95170.34;1032437;28;20021;-82
2020/12/10 00:10:15;;;;;;;32.72;25.02;;;;;;;-0.05;100.00;95174.53;1028388;28;20022;-75
2020/12/10 00:10:46;;;;;;;28.73;23.15;;;;;;;-0.09;100.00;95160.94;1032227;28;20524;-73
2020/12/10 00:11:17;;;;;;;33.28;24.02;;;;;;;-0.06;100.00;95160.81;1024209;29;20008;-74
2020/12/10 00:11:48;;;;;;;29.83;23.08;;;;;;;-0.08;100.00;95154.06;1024150;29;20131;-75
2020/12/10 00:12:19;;;;;;;32.92;23.88;;;;;;;-0.10;100.00;95155.84;1028383;28;20293;-75
2020/12/10 00:12:50;;;;;;;31.20;23.85;;;;;;;-0.13;100.00;95159.41;1024300;29;20007;-75
2020/12/10 00:13:20;;;;;;;28.20;22.73;;;;;;;-0.06;100.00;95162.56;1028315;28;20018;-73
2020/12/10 00:13:51;;;;;;;29.45;22.50;;;;;;;-0.06;100.00;95165.13;1024191;29;20030;-74
2020/12/10 00:14:22;;;;;;;28.65;22.15;;;;;;;-0.10;100.00;95161.84;1028488;28;20092;-75
2020/12/10 00:14:53;;;;;;;27.83;22.02;;;;;;;-0.10;100.00;95158.44;1032279;28;20018;-74
2020/12/10 00:15:25;;;;;;;28.42;22.65;;;;;;;-0.08;100.00;95157.47;1028384;28;20011;-75
2020/12/10 00:15:56;;;;;;;29.98;23.63;;;;;;;-0.11;100.00;95165.31;1028376;28;20255;-80
2020/12/10 00:16:27;;;;;;;30.38;23.55;;;;;;;-0.09;100.00;95162.69;1024422;28;20255;-73
2020/12/10 00:16:57;;;;;;;29.67;23.42;;;;;;;-0.09;100.00;95160.13;1020161;29;20012;-80
2020/12/10 00:17:28;;;;;;;27.83;22.20;;;;;;;-0.06;100.00;95155.66;1028064;28;20019;-76
2020/12/10 00:17:59;;;;;;;28.15;22.50;;;;;;;-0.09;100.00;95150.66;1028416;28;20407;-78
2020/12/10 00:18:30;;;;;;;30.35;23.25;;;;;;;-0.13;100.00;95155.97;1024445;28;20015;-77
2020/12/10 00:19:00;;;;;;;30.15;22.77;;;;;;;-0.14;100.00;95160.28;1032171;28;20110;-75
2020/12/10 00:19:32;;;;;;;28.02;22.90;;;;;;;-0.11;100.00;95156.75;1020527;28;20015;-74
2020/12/10 00:20:04;;;;;;;28.10;22.75;;;;;;;-0.10;100.00;95151.53;1036436;28;20526;-77
2020/12/10 00:20:35;;;;;;;27.60;21.85;;;;;;;-0.06;100.00;95150.50;1024439;29;20259;-75
2020/12/10 00:21:07;;;;;;;28.00;22.45;;;;;;;-0.10;100.00;95146.38;1032226;28;20262;-76
2020/12/10 00:21:37;;;;;;;26.58;21.58;;;;;;;-0.05;100.00;95148.78;1040488;28;20071;-74
2020/12/10 00:22:08;;;;;;;25.33;20.67;;;;;;;-0.09;100.00;95148.06;1028294;28;20250;-76
2020/12/10 00:22:39;;;;;;;27.20;22.25;;;;;;;-0.17;100.00;95136.41;1032396;28;20018;-77
2020/12/10 00:23:10;;;;;;;27.65;22.83;;;;;;;-0.07;100.00;95150.59;1024275;29;20026;-76
2020/12/10 00:23:40;;;;;;;28.10;22.85;;;;;;;-0.03;100.00;95149.56;1028104;28;20019;-74
2020/12/10 00:24:11;;;;;;;29.20;23.42;;;;;;;-0.08;100.00;95144.59;1028331;28;20050;-77
2020/12/10 00:24:42;;;;;;;31.20;23.55;;;;;;;-0.14;100.00;95155.16;1032238;28;20062;-74
2020/12/10 00:25:13;;;;;;;32.08;23.35;;;;;;;-0.13;100.00;95150.81;1032317;28;20022;-74
2020/12/10 00:25:43;;;;;;;34.28;24.40;;;;;;;-0.22;100.00;95146.91;1028373;28;20015;-78
2020/12/10 00:26:14;;;;;;;28.45;23.00;;;;;;;-0.14;100.00;95149.16;1032385;28;20079;-75
2020/12/10 00:26:47;;;;;;;24.92;20.52;;;;;;;-0.09;100.00;95149.81;1024144;29;20109;-74
2020/12/10 00:27:22;;;;;;;25.80;21.45;;;;;;;-0.08;100.00;95154.06;1036343;28;20285;-74
2020/12/10 00:27:53;;;;;;;25.83;21.40;;;;;;;-0.08;100.00;95152.31;1028278;28;20325;-75
2020/12/10 00:28:25;;;;;;;33.83;25.23;;;;;;;-0.10;100.00;95148.97;1024379;29;20350;-74
2020/12/10 00:28:56;;;;;;;39.92;27.55;;;;;;;-0.08;100.00;95148.91;1028289;28;20083;-74
2020/12/10 00:29:27;;;;;;;39.47;26.75;;;;;;;-0.09;100.00;95149.81;1036326;28;20752;-77
2020/12/10 00:29:57;;;;;;;35.63;25.92;;;;;;;-0.10;100.00;95145.56;1024250;28;20266;-74
2020/12/10 00:30:29;;;;;;;31.58;24.17;;;;;;;-0.09;100.00;95145.50;1032247;28;20072;-76
2020/12/10 00:31:00;;;;;;;33.17;25.15;;;;;;;-0.05;100.00;95148.78;1028209;28;20054;-78
2020/12/10 00:31:30;;;;;;;41.42;27.58;;;;;;;-0.06;100.00;95147.09;1036418;28;20331;-78
2020/12/10 00:32:01;;;;;;;32.25;25.08;;;;;;;0.00;100.00;95141.72;1028288;28;20455;-78
2020/12/10 00:32:48;;;;;;;28.42;22.60;;;;;;;0.00;100.00;95141.72;1040580;28;20124;-75
2020/12/10 00:33:30;;;;;;;31.73;23.90;;;;;;;-0.04;100.00;95150.44;1036354;28;20105;-75
2020/12/10 00:34:01;;;;;;;31.90;24.70;;;;;;;-0.01;100.00;95143.44;1024324;29;20283;-74
2020/12/10 00:34:32;;;;;;;30.30;22.52;;;;;;;-0.03;100.00;95144.41;1040593;28;20248;-75
2020/12/10 00:35:04;;;;;;;32.45;23.73;;;;;;;-0.07;100.00;95135.16;1036323;28;20074;-74
2020/12/10 00:35:35;;;;;;;31.83;24.02;;;;;;;-0.07;100.00;95143.69;1032273;28;20037;-74
2020/12/10 00:36:05;;;;;;;29.05;21.95;;;;;;;-0.13;100.00;95140.53;1032445;28;20273;-75
2020/12/10 00:36:36;;;;;;;28.35;22.77;;;;;;;-0.12;100.00;95139.66;1032378;28;20026;-73
2020/12/10 00:37:07;;;;;;;30.90;24.38;;;;;;;-0.08;100.00;95142.00;1024170;29;20019;-76
2020/12/10 00:37:38;;;;;;;32.83;24.27;;;;;;;-0.06;100.00;95142.78;1032330;28;20521;-74
2020/12/10 00:38:09;;;;;;;30.50;23.75;;;;;;;0.00;100.00;95139.16;1028244;28;20260;-73
2020/12/10 00:38:40;;;;;;;30.92;23.25;;;;;;;0.01;100.00;95135.66;1032314;28;20085;-76
2020/12/10 00:39:10;;;;;;;29.27;23.10;;;;;;;0.03;100.00;95143.31;1028310;28;20022;-75
2020/12/10 00:39:41;;;;;;;30.85;23.65;;;;;;;0.01;100.00;95134.81;1028486;28;20197;-74
2020/12/10 00:40:12;;;;;;;29.05;22.90;;;;;;;-0.05;100.00;95133.34;1024288;29;20024;-74
2020/12/10 00:40:43;;;;;;;30.63;24.00;;;;;;;-0.03;100.00;95134.94;1024346;29;20034;-76
2020/12/10 00:41:14;;;;;;;28.30;22.25;;;;;;;-0.05;100.00;95131.59;1028388;28;20023;-73
2020/12/10 00:41:45;;;;;;;31.60;24.27;;;;;;;-0.04;100.00;95137.56;1032278;28;20101;-74
2020/12/10 00:42:15;;;;;;;30.02;23.27;;;;;;;-0.06;100.00;95134.22;1028385;28;20730;-73
2020/12/10 00:42:48;;;;;;;27.48;22.20;;;;;;;-0.05;100.00;95139.31;1032147;28;20109;-76
2020/12/10 00:43:19;;;;;;;30.38;23.75;;;;;;;-0.09;100.00;95129.22;1032107;28;20085;-74
2020/12/10 00:43:50;;;;;;;34.83;24.98;;;;;;;-0.08;100.00;95134.28;1028157;28;20282;-74
2020/12/10 00:44:21;;;;;;;29.90;23.58;;;;;;;-0.03;100.00;95136.69;1020359;29;20417;-74
2020/12/10 00:44:51;;;;;;;31.73;24.52;;;;;;;-0.01;100.00;95134.88;1032155;28;20037;-74
2020/12/10 00:45:22;;;;;;;35.13;25.95;;;;;;;-0.05;100.00;95138.50;1032188;28;20084;-71
2020/12/10 00:45:53;;;;;;;28.90;23.67;;;;;;;-0.09;100.00;95129.22;1028220;28;20058;-73
2020/12/10 00:46:24;;;;;;;30.38;22.88;;;;;;;-0.05;100.00;95138.50;1020401;29;20672;-74
2020/12/10 00:46:55;;;;;;;33.38;24.67;;;;;;;-0.05;100.00;95130.75;1024057;28;20476;-73
2020/12/10 00:47:26;;;;;;;33.63;24.00;;;;;;;-0.08;100.00;95131.72;1028349;28;20026;-78
2020/12/10 00:47:56;;;;;;;27.88;23.17;;;;;;;-0.09;100.00;95132.63;1036309;28;20026;-71
2020/12/10 00:48:27;;;;;;;30.63;22.98;;;;;;;-0.09;100.00;95126.66;1032181;28;20034;-74
2020/12/10 00:48:58;;;;;;;32.47;24.67;;;;;;;-0.02;100.00;95130.63;1024113;29;20031;-72
2020/12/10 00:49:29;;;;;;;29.67;23.85;;;;;;;-0.02;100.00;95128.03;1028394;28;20427;-71
2020/12/10 00:50:00;;;;;;;33.13;23.60;;;;;;;-0.04;100.00;95132.41;1024189;28;20027;-71
2020/12/10 00:50:30;;;;;;;28.67;22.70;;;;;;;-0.14;100.00;95119.09;1028283;28;20031;-71
2020/12/10 00:51:02;;;;;;;31.80;24.27;;;;;;;-0.02;100.00;95128.03;1032166;28;20034;-73
2020/12/10 00:51:32;;;;;;;33.38;24.27;;;;;;;-0.02;100.00;95126.31;1020210;28;20035;-72
2020/12/10 00:52:03;;;;;;;34.67;24.80;;;;;;;-0.02;100.00;95120.31;1036261;28;20264;-73
2020/12/10 00:52:34;;;;;;;38.08;26.55;;;;;;;-0.10;100.00;95130.13;1032208;28;20038;-74
2020/12/10 00:53:05;;;;;;;37.38;26.70;;;;;;;-0.16;100.00;95125.22;1024219;29;20446;-71
2020/12/10 00:53:36;;;;;;;32.45;23.35;;;;;;;-0.08;100.00;95128.31;1032187;28;20266;-72
2020/12/10 00:54:07;;;;;;;30.42;24.20;;;;;;;-0.06;100.00;95132.47;1028221;28;20022;-72
2020/12/10 00:54:38;;;;;;;31.23;24.63;;;;;;;-0.01;100.00;95127.16;1032194;28;20026;-75
2020/12/10 00:55:09;;;;;;;29.85;23.88;;;;;;;-0.05;100.00;95123.03;1032150;28;20470;-72
2020/12/10 00:55:39;;;;;;;34.00;25.35;;;;;;;-0.05;100.00;95126.44;1024208;29;20118;-75
2020/12/10 00:56:10;;;;;;;31.98;24.50;;;;;;;-0.08;100.00;95126.56;1028196;28;20031;-73
2020/12/10 00:56:41;;;;;;;31.13;23.90;;;;;;;-0.04;100.00;95130.72;1036248;28;20065;-72
2020/12/10 00:57:12;;;;;;;30.63;23.08;;;;;;;-0.03;100.00;95128.97;1028142;28;20480;-73
2020/12/10 00:57:43;;;;;;;30.20;22.63;;;;;;;-0.08;100.00;95126.56;1024322;29;20270;-78
2020/12/10 00:58:13;;;;;;;28.77;22.40;;;;;;;-0.05;100.00;95128.19;1032221;28;20026;-75
2020/12/10 00:58:45;;;;;;;28.60;22.52;;;;;;;-0.01;100.00;95127.97;1024205;29;20155;-73
2020/12/10 00:59:16;;;;;;;31.13;22.98;;;;;;;0.03;100.00;95123.53;1032200;28;20038;-72
2020/12/10 00:59:47;;;;;;;30.92;23.23;;;;;;;0.02;100.00;95129.63;1032418;28;20261;-73
2020/12/10 01:00:18;;;;;;;31.55;24.35;;;;;;;-0.03;100.00;95126.38;1028323;28;20048;-74
2020/12/10 01:00:49;;;;;;;29.15;22.85;;;;;;;-0.03;100.00;95127.22;1032190;28;20265;-71
2020/12/10 01:01:20;;;;;;;32.10;24.63;;;;;;;-0.05;100.00;95133.34;1020233;29;20118;-72
2020/12/10 01:01:51;;;;;;;30.05;23.33;;;;;;;-0.05;100.00;95129.03;1028222;28;20262;-78
2020/12/10 01:02:22;;;;;;;31.90;23.80;;;;;;;-0.14;100.00;95116.53;1028267;28;20418;-72
2020/12/10 01:02:53;;;;;;;30.33;23.10;;;;;;;-0.11;100.00;95124.13;1020146;29;20024;-73
2020/12/10 01:03:24;;;;;;;30.15;22.33;;;;;;;-0.11;100.00;95121.56;1028096;28;20118;-73
2020/12/10 01:03:54;;;;;;;32.80;23.88;;;;;;;-0.11;100.00;95119.00;1020190;28;20459;-73
2020/12/10 01:04:25;;;;;;;28.55;22.65;;;;;;;-0.07;100.00;95123.09;1032263;28;20053;-71
2020/12/10 01:04:56;;;;;;;33.38;24.52;;;;;;;-0.09;100.00;95117.19;1020156;29;20066;-74
2020/12/10 01:05:27;;;;;;;30.25;23.00;;;;;;;-0.03;100.00;95114.34;1036253;28;20025;-73
2020/12/10 01:05:58;;;;;;;27.50;21.85;;;;;;;-0.04;100.00;95115.25;1032136;28;20050;-73
2020/12/10 01:06:28;;;;;;;41.38;27.85;;;;;;;-0.04;100.00;95119.56;1036356;28;20273;-73
2020/12/10 01:06:59;;;;;;;36.75;25.33;;;;;;;-0.09;100.00;95117.19;1027987;28;20031;-73
2020/12/10 01:07:30;;;;;;;44.65;27.73;;;;;;;-0.12;100.00;95116.47;1036153;28;20056;-75
2020/12/10 01:08:01;;;;;;;36.53;25.23;;;;;;;-0.16;100.00;95114.94;1028174;28;20029;-72
2020/12/10 01:08:32;;;;;;;33.67;25.10;;;;;;;-0.21;100.00;95115.09;1028145;28;20277;-73
2020/12/10 01:09:05;;;;;;;38.33;26.65;;;;;;;-0.17;100.00;95116.66;1028038;28;20030;-78
2020/12/10 01:09:36;;;;;;;39.80;26.35;;;;;;;-0.16;100.00;95126.06;1020175;29;20035;-74
2020/12/10 01:10:07;;;;;;;36.78;25.33;;;;;;;-0.22;100.00;95118.59;1028050;28;20297;-73
2020/12/10 01:10:38;;;;;;;35.42;26.05;;;;;;;-0.22;100.00;95111.69;1028295;28;20034;-73
2020/12/10 01:11:09;;;;;;;41.35;26.27;;;;;;;-0.25;100.00;95119.53;1031859;28;20264;-74
2020/12/10 01:11:41;;;;;;;37.65;25.90;;;;;;;-0.28;100.00;95117.13;1023714;28;20027;-73
2020/12/10 01:12:12;;;;;;;31.65;24.60;;;;;;;-0.17;100.00;95123.53;1044391;28;20021;-75
2020/12/10 01:12:42;;;;;;;29.55;23.23;;;;;;;-0.11;100.00;95128.44;1028031;28;20790;-73
2020/12/10 01:13:13;;;;;;;30.95;24.95;;;;;;;-0.13;100.00;95123.38;1032046;28;20572;-77
2020/12/10 01:13:44;;;;;;;29.70;22.98;;;;;;;-0.13;100.00;95118.22;1032048;28;20455;-73
2020/12/10 01:14:15;;;;;;;28.13;22.42;;;;;;;-0.06;100.00;95127.34;1032155;28;20030;-76
2020/12/10 01:14:46;;;;;;;28.88;22.75;;;;;;;-0.07;100.00;95127.41;1028088;28;20054;-76
2020/12/10 01:15:16;;;;;;;30.63;24.05;;;;;;;-0.11;100.00;95120.69;1040145;28;20663;-74
2020/12/10 01:15:47;;;;;;;29.95;22.67;;;;;;;-0.12;100.00;95121.63;1028192;28;20510;-73
2020/12/10 01:16:18;;;;;;;30.60;23.33;;;;;;;-0.09;100.00;95126.66;1028059;28;20113;-73
2020/12/10 01:16:50;;;;;;;30.98;22.42;;;;;;;-0.12;100.00;95127.59;1036032;28;20287;-75
2020/12/10 01:17:21;;;;;;;31.42;24.40;;;;;;;-0.11;100.00;95125.84;1032137;28;20038;-78
2020/12/10 01:17:51;;;;;;;32.00;24.38;;;;;;;-0.20;100.00;95115.03;1036337;28;20296;-76
2020/12/10 01:18:22;;;;;;;36.03;26.10;;;;;;;-0.11;100.00;95123.28;1024008;29;20034;-73
2020/12/10 01:18:53;;;;;;;35.65;25.48;;;;;;;-0.10;100.00;95130.13;1032014;28;20424;-73
2020/12/10 01:19:24;;;;;;;39.47;28.38;;;;;;;-0.09;100.00;95121.50;1028104;28;20011;-72
2020/12/10 01:19:54;;;;;;;31.73;23.38;;;;;;;-0.09;100.00;95124.06;1028221;28;20027;-71
2020/12/10 01:20:26;;;;;;;36.05;26.15;;;;;;;-0.09;100.00;95118.94;1036122;28;20721;-72
2020/12/10 01:20:56;;;;;;;32.92;24.42;;;;;;;-0.09;100.00;95112.03;1027892;28;20027;-71
2020/12/10 01:22:11;;;;;;;32.33;24.45;;;;;;;-0.02;100.00;95120.31;1032088;28;20773;-73
2020/12/10 01:22:42;;;;;;;33.17;23.67;;;;;;;0.00;100.00;95115.97;1033907;28;20361;-73
2020/12/10 01:23:13;;;;;;;35.80;25.55;;;;;;;-0.03;100.00;95116.91;1031924;28;20345;-73
2020/12/10 01:23:43;;;;;;;33.47;24.15;;;;;;;-0.05;100.00;95118.72;1027953;28;20018;-73
2020/12/10 01:24:14;;;;;;;35.80;26.05;;;;;;;-0.11;100.00;95120.69;1028012;28;20062;-73
2020/12/10 01:24:45;;;;;;;31.95;24.20;;;;;;;-0.08;100.00;95120.59;1032081;28;20042;-75
2020/12/10 01:25:15;;;;;;;31.48;24.05;;;;;;;-0.01;100.00;95125.41;1023950;29;20090;-75
2020/12/10 01:25:46;;;;;;;31.58;23.88;;;;;;;-0.04;100.00;95116.97;1032199;28;20032;-72
2020/12/10 01:26:17;;;;;;;29.98;23.58;;;;;;;-0.01;100.00;95122.84;1020060;29;20418;-73
2020/12/10 01:26:48;;;;;;;32.63;23.75;;;;;;;0.03;100.00;95118.38;1027761;28;20071;-73
2020/12/10 01:27:26;;;;;;;31.77;25.30;;;;;;;-0.03;100.00;95127.22;1028017;28;20026;-72
2020/12/10 01:27:56;;;;;;;30.10;22.55;;;;;;;-0.10;100.00;95119.81;1028215;28;20155;-72
2020/12/10 01:28:27;;;;;;;31.85;22.98;;;;;;;-0.15;100.00;95117.44;1027916;28;20278;-74
2020/12/10 01:28:58;;;;;;;36.28;26.48;;;;;;;-0.21;100.00;95118.53;1031370;28;20030;-74
2020/12/10 01:29:29;;;;;;;31.30;23.48;;;;;;;-0.14;100.00;95120.84;1040010;28;20529;-72
2020/12/10 01:30:00;;;;;;;28.73;22.85;;;;;;;-0.15;100.00;95132.91;1028148;28;20259;-76
2020/12/10 01:30:31;;;;;;;35.92;25.65;;;;;;;-0.14;100.00;95124.25;1036084;28;20368;-75
2020/12/10 01:31:02;;;;;;;30.52;24.10;;;;;;;-0.11;100.00;95125.84;1027858;28;20444;-72
2020/12/10 01:31:33;;;;;;;28.33;22.02;;;;;;;-0.14;100.00;95115.69;1028250;28;20069;-73
2020/12/10 01:32:04;;;;;;;28.85;22.23;;;;;;;-0.06;100.00;95126.50;1032056;28;20678;-72
2020/12/10 01:32:35;;;;;;;32.75;23.85;;;;;;;-0.05;100.00;95116.16;1032041;28;20070;-72
2020/12/10 01:33:06;;;;;;;31.20;23.58;;;;;;;-0.01;100.00;95114.28;1031962;28;20117;-74
2020/12/10 01:33:37;;;;;;;28.98;21.60;;;;;;;0.06;100.00;95126.00;1027999;28;20033;-72
2020/12/10 01:34:08;;;;;;;29.30;22.60;;;;;;;0.07;100.00;95116.53;1036099;28;20323;-72
2020/12/10 01:34:39;;;;;;;30.20;23.13;;;;;;;0.08;100.00;95120.78;1028047;28;20027;-72
2020/12/10 01:35:10;;;;;;;31.42;22.80;;;;;;;0.07;100.00;95122.50;1027978;28;20033;-72
2020/12/10 01:35:41;;;;;;;32.53;24.00;;;;;;;0.04;100.00;95124.38;1032222;28;20479;-75
2020/12/10 01:36:21;;;;;;;29.23;23.38;;;;;;;-0.01;100.00;95122.00;1020212;29;20035;-72
2020/12/10 01:36:52;;;;;;;29.05;21.58;;;;;;;-0.02;100.00;95122.88;1027988;28;20030;-72
2020/12/10 01:37:23;;;;;;;32.85;23.15;;;;;;;-0.09;100.00;95113.78;1028035;28;20302;-72
2020/12/10 01:37:54;;;;;;;29.02;22.02;;;;;;;-0.05;100.00;95120.47;1020260;29;20039;-73
2020/12/10 01:38:25;;;;;;;29.55;22.67;;;;;;;-0.05;100.00;95120.47;1028145;28;20085;-76
2020/12/10 01:38:56;;;;;;;29.67;22.80;;;;;;;-0.01;100.00;95116.84;1023996;28;20054;-73
2020/12/10 01:39:27;;;;;;;31.13;22.85;;;;;;;-0.11;100.00;95113.84;1024223;29;20270;-76
2020/12/10 01:39:58;;;;;;;28.67;21.85;;;;;;;-0.04;100.00;95120.41;1036125;28;20280;-73
2020/12/10 01:40:29;;;;;;;33.30;23.30;;;;;;;-0.04;100.00;95112.69;1036172;28;20034;-72
2020/12/10 01:41:00;;;;;;;30.92;22.95;;;;;;;-0.03;100.00;95109.19;1027787;28;20335;-72
2020/12/10 01:41:33;;;;;;;30.52;23.30;;;;;;;-0.05;100.00;95112.75;1036075;28;20477;-78
2020/12/10 01:42:05;;;;;;;31.33;24.02;;;;;;;-0.03;100.00;95116.09;1036178;28;20026;-73
2020/12/10 01:42:36;;;;;;;32.35;24.52;;;;;;;-0.01;100.00;95109.13;1032172;28;20261;-73
2020/12/10 01:43:07;;;;;;;34.38;25.65;;;;;;;0.01;100.00;95106.50;1023929;29;20346;-72
2020/12/10 01:43:38;;;;;;;30.65;22.80;;;;;;;-0.02;100.00;95107.44;1040147;28;20797;-72
2020/12/10 01:44:11;;;;;;;34.63;24.95;;;;;;;-0.10;100.00;95094.91;1027945;28;20053;-72
2020/12/10 01:44:42;;;;;;;33.85;24.25;;;;;;;-0.09;100.00;95104.31;1036107;28;20253;-76
2020/12/10 01:45:12;;;;;;;34.22;24.55;;;;;;;-0.14;100.00;95106.22;1031966;28;20839;-72
2020/12/10 01:45:43;;;;;;;32.70;23.38;;;;;;;-0.15;100.00;95107.16;1028301;28;20018;-73
2020/12/10 01:46:14;;;;;;;30.20;21.85;;;;;;;-0.13;100.00;95109.63;1032033;28;20398;-72
2020/12/10 01:46:45;;;;;;;27.60;21.42;;;;;;;-0.15;100.00;95109.72;1027882;28;20045;-72
2020/12/10 01:47:15;;;;;;;31.13;24.10;;;;;;;-0.15;100.00;95107.16;1027970;28;20023;-73
2020/12/10 01:47:46;;;;;;;33.70;22.75;;;;;;;-0.20;100.00;95109.91;1032001;28;20019;-72
2020/12/10 01:48:17;;;;;;;35.70;24.65;;;;;;;-0.24;100.00;95097.22;1031916;28;20025;-73
2020/12/10 01:48:48;;;;;;;34.65;24.88;;;;;;;-0.20;100.00;95111.66;1023994;28;20383;-72
2020/12/10 01:49:19;;;;;;;37.53;26.45;;;;;;;-0.29;100.00;95096.59;1040017;28;20462;-74
2020/12/10 01:49:50;;;;;;;39.50;25.40;;;;;;;-0.22;100.00;95111.69;1028212;28;20509;-72
2020/12/10 01:50:20;;;;;;;27.52;21.05;;;;;;;-0.24;100.00;95100.63;1032187;28;20014;-73
2020/12/10 01:50:52;;;;;;;36.85;25.50;;;;;;;-0.18;100.00;95107.25;1035823;28;20253;-72
2020/12/10 01:51:23;;;;;;;35.33;24.08;;;;;;;-0.13;100.00;95100.19;1024105;29;20110;-72
2020/12/10 01:51:54;;;;;;;29.13;22.77;;;;;;;-0.17;100.00;95101.19;1027999;28;20257;-72
2020/12/10 01:52:25;;;;;;;30.30;23.23;;;;;;;-0.18;100.00;95101.28;1032012;28;20586;-74
2020/12/10 01:52:56;;;;;;;34.20;24.42;;;;;;;-0.24;100.00;95098.06;1020066;28;20226;-73
2020/12/10 01:53:27;;;;;;;36.53;25.25;;;;;;;-0.21;100.00;95105.66;1027959;28;20106;-72
2020/12/10 01:53:58;;;;;;;46.22;29.02;;;;;;;-0.18;100.00;95098.72;1027996;28;20479;-73
2020/12/10 01:54:29;;;;;;;36.97;25.52;;;;;;;-0.18;100.00;95098.72;1031921;28;20109;-71
2020/12/10 01:55:01;;;;;;;30.85;24.30;;;;;;;-0.16;100.00;95099.47;1019925;29;20435;-72
2020/12/10 01:55:32;;;;;;;29.42;23.27;;;;;;;-0.21;100.00;95089.38;1024048;29;20258;-72
2020/12/10 01:56:03;;;;;;;32.20;24.15;;;;;;;-0.17;100.00;95095.22;1036041;28;20267;-74
2020/12/10 01:56:34;;;;;;;35.42;25.65;;;;;;;-0.14;100.00;95092.53;1032173;28;20042;-72
2020/12/10 01:57:05;;;;;;;30.02;22.00;;;;;;;-0.11;100.00;95094.97;1031948;28;20341;-72
2020/12/10 01:57:36;;;;;;;29.17;21.98;;;;;;;-0.19;100.00;95095.28;1032015;28;20309;-72
2020/12/10 01:58:07;;;;;;;31.90;23.13;;;;;;;-0.27;100.00;95082.72;1031911;28;20306;-72
2020/12/10 01:58:38;;;;;;;29.45;22.55;;;;;;;-0.15;100.00;95090.84;1032012;28;20344;-72
2020/12/10 01:59:11;;;;;;;31.95;23.80;;;;;;;-0.11;100.00;95097.53;1031813;28;20022;-74
2020/12/10 01:59:42;;;;;;;29.02;23.17;;;;;;;-0.14;100.00;95084.81;1023971;29;20067;-76
2020/12/10 02:00:13;;;;;;;29.88;23.58;;;;;;;-0.04;100.00;95086.94;1027958;28;20620;-71
2020/12/10 02:00:44;;;;;;;31.10;23.60;;;;;;;-0.08;100.00;95092.25;1023812;29;20047;-73
2020/12/10 02:01:15;;;;;;;29.50;23.08;;;;;;;-0.12;100.00;95081.25;1027944;28;20462;-71
2020/12/10 02:01:46;;;;;;;30.10;23.02;;;;;;;-0.07;100.00;95088.81;1036088;28;20256;-71
2020/12/10 02:02:17;;;;;;;32.88;24.42;;;;;;;-0.08;100.00;95077.66;1023857;28;20269;-79
2020/12/10 02:02:56;;;;;;;31.45;23.15;;;;;;;-0.07;100.00;95087.06;1027929;28;20662;-73
2020/12/10 02:03:27;;;;;;;32.85;23.13;;;;;;;-0.12;100.00;95081.25;1023977;28;20114;-72
2020/12/10 02:03:58;;;;;;;33.13;23.17;;;;;;;-0.07;100.00;95081.06;1023875;28;20254;-72
2020/12/10 02:04:33;;;;;;;30.73;21.67;;;;;;;-0.07;100.00;95081.06;1032103;28;20046;-71
2020/12/10 02:05:03;;;;;;;31.58;22.23;;;;;;;-0.10;100.00;95073.47;1027763;28;20109;-71
2020/12/10 02:05:44;;;;;;;29.67;22.30;;;;;;;-0.03;100.00;95077.47;1028125;28;20254;-71
2020/12/10 02:06:15;;;;;;;29.42;22.83;;;;;;;-0.03;100.00;95069.75;1031948;28;20018;-70
2020/12/10 02:06:46;;;;;;;28.77;21.48;;;;;;;-0.04;100.00;95079.22;1031880;28;20262;-74
2020/12/10 02:07:17;;;;;;;28.38;21.98;;;;;;;-0.04;100.00;95076.63;1027931;28;20251;-71
2020/12/10 02:07:48;;;;;;;28.35;22.42;;;;;;;-0.05;100.00;95077.53;1027864;28;20042;-70
2020/12/10 02:08:18;;;;;;;29.17;22.73;;;;;;;-0.05;100.00;95079.28;1028005;28;20019;-75
2020/12/10 02:08:49;;;;;;;29.23;22.40;;;;;;;-0.04;100.00;95073.19;1027800;28;20317;-74
2020/12/10 02:09:20;;;;;;;30.00;22.40;;;;;;;-0.03;100.00;95069.75;1031880;28;20098;-72
2020/12/10 02:09:51;;;;;;;29.33;22.40;;;;;;;-0.07;100.00;95073.34;1031859;28;20528;-72
2020/12/10 02:10:22;;;;;;;27.85;21.73;;;;;;;-0.07;100.00;95081.06;1028029;28;20027;-72
2020/12/10 02:10:52;;;;;;;27.10;22.08;;;;;;;-0.08;100.00;95076.81;1023977;29;20022;-71
2020/12/10 02:11:24;;;;;;;27.02;21.48;;;;;;;-0.07;100.00;95079.31;1027700;28;20022;-77
2020/12/10 02:11:55;;;;;;;28.27;21.95;;;;;;;-0.04;100.00;95071.47;1031798;28;20109;-73
2020/12/10 02:12:25;;;;;;;28.35;22.10;;;;;;;-0.12;100.00;95060.66;1027885;28;20293;-71
2020/12/10 02:12:56;;;;;;;26.73;21.58;;;;;;;-0.03;100.00;95073.13;1031832;28;20022;-71
2020/12/10 02:13:28;;;;;;;27.63;21.92;;;;;;;-0.01;100.00;95075.66;1031830;28;20115;-71
2020/12/10 02:13:59;;;;;;;29.15;21.67;;;;;;;-0.03;100.00;95072.31;1031957;28;20025;-72
2020/12/10 02:14:32;;;;;;;29.13;21.35;;;;;;;-0.03;100.00;95067.16;1024090;29;20707;-72
2020/12/10 02:15:02;;;;;;;28.83;21.55;;;;;;;-0.08;100.00;95071.66;1023814;29;20023;-73
2020/12/10 02:15:35;;;;;;;28.88;22.65;;;;;;;-0.13;100.00;95069.31;1027910;28;20278;-72
2020/12/10 02:16:07;;;;;;;28.25;21.95;;;;;;;-0.12;100.00;95072.69;1028083;28;20403;-73
2020/12/10 02:16:37;;;;;;;29.95;22.58;;;;;;;-0.13;100.00;95063.28;1032107;28;20261;-72
2020/12/10 02:17:08;;;;;;;28.33;21.90;;;;;;;-0.16;100.00;95068.59;1028046;28;20722;-71
2020/12/10 02:17:39;;;;;;;28.15;21.95;;;;;;;-0.14;100.00;95065.03;1036073;28;20058;-71
2020/12/10 02:18:11;;;;;;;30.70;22.65;;;;;;;-0.14;100.00;95069.34;1027848;28;20072;-71
2020/12/10 02:18:42;;;;;;;31.42;24.10;;;;;;;-0.15;100.00;95070.25;1031722;28;20025;-71
2020/12/10 02:19:13;;;;;;;31.50;23.13;;;;;;;-0.15;100.00;95065.97;1031965;28;20280;-71
2020/12/10 02:19:43;;;;;;;32.63;24.38;;;;;;;-0.15;100.00;95072.81;1027918;28;20375;-71
2020/12/10 02:20:14;;;;;;;30.35;22.13;;;;;;;-0.13;100.00;95068.44;1027879;28;20076;-71
2020/12/10 02:20:45;;;;;;;33.42;23.85;;;;;;;-0.10;100.00;95064.00;1019831;29;20357;-71
2020/12/10 02:21:16;;;;;;;29.65;22.10;;;;;;;-0.08;100.00;95069.91;1027743;28;20083;-72
2020/12/10 02:21:46;;;;;;;30.50;22.00;;;;;;;-0.07;100.00;95063.88;1023982;29;20019;-71
2020/12/10 02:22:17;;;;;;;30.67;23.20;;;;;;;-0.14;100.00;95062.47;1023963;29;20033;-71
2020/12/10 02:22:58;;;;;;;31.83;23.45;;;;;;;-0.11;100.00;95067.50;1027719;28;20027;-72